sensor_id;sensor_type;location;lat;lon;timestamp;P1;durP1;ratioP1;P2;durP2;ratioP2
19223;SDS011;9746;47.180;9.776;2023-04-23T09:37:52;0.10;;;0.10;;
19223;SDS011;9746;47.180;9.776;2023-04-23T09:40:21;0.00;;;0.00;;
19223;SDS011;9746;47.180;9.776;2023-04-23T09:46:15;0.10;;;0.10;;
19223;SDS011;9746;47.180;9.776;2023-04-23T09:51:52;0.10;;;0.10;;
19223;SDS011;9746;47.180;9.776;2023-04-23T09:54:21;0.10;;;0.10;;
19223;SDS011;9746;47.180;9.776;2023-04-23T09:56:50;0.10;;;0.10;;
19223;SDS011;9746;47.180;9.776;2023-04-23T09:59:22;0.10;;;0.10;;
19223;SDS011;9746;47.180;9.776;2023-04-23T10:01:50;0.10;;;0.10;;
19223;SDS011;9746;47.180;9.776;2023-04-23T10:04:25;0.10;;;0.10;;
19223;SDS011;9746;47.180;9.776;2023-04-23T10:06:53;0.10;;;0.10;;
19223;SDS011;9746;47.180;9.776;2023-04-23T10:12:02;0.10;;;0.10;;
19223;SDS011;9746;47.180;9.776;2023-04-23T10:14:31;0.10;;;0.10;;
19223;SDS011;9746;47.180;9.776;2023-04-23T10:16:59;0.10;;;0.10;;
19223;SDS011;9746;47.180;9.776;2023-04-23T10:19:28;0.10;;;0.10;;
19223;SDS011;9746;47.180;9.776;2023-04-23T10:21:57;0.10;;;0.10;;
19223;SDS011;9746;47.180;9.776;2023-04-23T10:24:32;0.10;;;0.10;;
19223;SDS011;9746;47.180;9.776;2023-04-23T10:27:02;0.10;;;0.10;;
19223;SDS011;9746;47.180;9.776;2023-04-23T10:32:09;0.10;;;0.10;;
19223;SDS011;9746;47.180;9.776;2023-04-23T10:34:37;0.10;;;0.10;;
19223;SDS011;9746;47.180;9.776;2023-04-23T10:37:07;0.10;;;0.10;;
19223;SDS011;9746;47.180;9.776;2023-04-23T10:39:36;0.10;;;0.10;;
19223;SDS011;9746;47.180;9.776;2023-04-23T10:42:05;0.10;;;0.10;;
19223;SDS011;9746;47.180;9.776;2023-04-23T10:44:41;0.00;;;0.00;;
19223;SDS011;9746;47.180;9.776;2023-04-23T10:47:11;0.17;;;0.00;;
19223;SDS011;9746;47.180;9.776;2023-04-23T10:49:40;0.10;;;0.10;;
19223;SDS011;9746;47.180;9.776;2023-04-23T10:52:08;0.10;;;0.10;;
19223;SDS011;9746;47.180;9.776;2023-04-23T10:57:25;0.10;;;0.10;;
19223;SDS011;9746;47.180;9.776;2023-04-23T10:59:53;0.10;;;0.10;;
19223;SDS011;9746;47.180;9.776;2023-04-23T11:02:23;0.00;;;0.00;;
19223;SDS011;9746;47.180;9.776;2023-04-23T11:04:53;0.10;;;0.10;;
19223;SDS011;9746;47.180;9.776;2023-04-23T11:07:25;0.08;;;0.08;;
19223;SDS011;9746;47.180;9.776;2023-04-23T11:09:57;0.10;;;0.10;;
19223;SDS011;9746;47.180;9.776;2023-04-23T11:15:49;0.10;;;0.10;;
19223;SDS011;9746;47.180;9.776;2023-04-23T11:22:01;0.10;;;0.10;;
19223;SDS011;9746;47.180;9.776;2023-04-23T11:27:34;0.10;;;0.10;;
19223;SDS011;9746;47.180;9.776;2023-04-23T11:30:08;0.10;;;0.10;;
19223;SDS011;9746;47.180;9.776;2023-04-23T11:32:38;0.10;;;0.10;;
19223;SDS011;9746;47.180;9.776;2023-04-23T11:35:06;0.10;;;0.10;;
19223;SDS011;9746;47.180;9.776;2023-04-23T11:37:37;0.10;;;0.10;;
19223;SDS011;9746;47.180;9.776;2023-04-23T11:40:07;0.10;;;0.10;;
19223;SDS011;9746;47.180;9.776;2023-04-23T11:45:59;0.10;;;0.10;;
19223;SDS011;9746;47.180;9.776;2023-04-23T11:48:42;0.10;;;0.10;;
19223;SDS011;9746;47.180;9.776;2023-04-23T11:51:09;0.00;;;0.00;;
19223;SDS011;9746;47.180;9.776;2023-04-23T11:59:40;0.10;;;0.10;;
19223;SDS011;9746;47.180;9.776;2023-04-23T12:02:08;0.00;;;0.00;;
19223;SDS011;9746;47.180;9.776;2023-04-23T12:07:47;0.10;;;0.10;;
19223;SDS011;9746;47.180;9.776;2023-04-23T12:10:16;0.10;;;0.10;;
19223;SDS011;9746;47.180;9.776;2023-04-23T12:12:48;0.00;;;0.00;;
19223;SDS011;9746;47.180;9.776;2023-04-23T12:15:16;0.10;;;0.10;;
19223;SDS011;9746;47.180;9.776;2023-04-23T12:17:47;0.00;;;0.00;;
19223;SDS011;9746;47.180;9.776;2023-04-23T12:20:17;0.10;;;0.10;;
19223;SDS011;9746;47.180;9.776;2023-04-23T12:22:47;0.10;;;0.10;;
19223;SDS011;9746;47.180;9.776;2023-04-23T12:27:47;0.00;;;0.00;;
19223;SDS011;9746;47.180;9.776;2023-04-23T12:30:15;0.00;;;0.00;;
19223;SDS011;9746;47.180;9.776;2023-04-23T12:32:43;0.00;;;0.00;;
19223;SDS011;9746;47.180;9.776;2023-04-23T12:41:36;0.10;;;0.10;;
19223;SDS011;9746;47.180;9.776;2023-04-23T12:44:16;0.00;;;0.00;;
19223;SDS011;9746;47.180;9.776;2023-04-23T12:46:45;0.00;;;0.00;;
19223;SDS011;9746;47.180;9.776;2023-04-23T12:51:55;0.00;;;0.00;;
19223;SDS011;9746;47.180;9.776;2023-04-23T12:57:21;0.00;;;0.00;;
19223;SDS011;9746;47.180;9.776;2023-04-23T13:02:38;0.00;;;0.00;;
19223;SDS011;9746;47.180;9.776;2023-04-23T13:07:46;0.00;;;0.00;;
19223;SDS011;9746;47.180;9.776;2023-04-23T13:16:57;0.00;;;0.00;;
19223;SDS011;9746;47.180;9.776;2023-04-23T13:22:47;0.00;;;0.00;;
19223;SDS011;9746;47.180;9.776;2023-04-23T13:28:10;0.10;;;0.10;;
19223;SDS011;9746;47.180;9.776;2023-04-23T13:36:48;0.10;;;0.10;;
19223;SDS011;9746;47.180;9.776;2023-04-23T13:48:40;0.10;;;0.10;;
19223;SDS011;9746;47.180;9.776;2023-04-23T13:51:08;0.10;;;0.10;;
19223;SDS011;9746;47.180;9.776;2023-04-23T13:53:37;0.00;;;0.00;;
19223;SDS011;9746;47.180;9.776;2023-04-23T13:56:04;0.00;;;0.00;;
19223;SDS011;9746;47.180;9.776;2023-04-23T13:58:33;0.10;;;0.10;;
19223;SDS011;9746;47.180;9.776;2023-04-23T14:01:01;0.10;;;0.10;;
19223;SDS011;9746;47.180;9.776;2023-04-23T14:03:29;0.10;;;0.10;;
19223;SDS011;9746;47.180;9.776;2023-04-23T14:06:03;0.10;;;0.10;;
19223;SDS011;9746;47.180;9.776;2023-04-23T14:08:31;0.00;;;0.00;;
19223;SDS011;9746;47.180;9.776;2023-04-23T14:11:02;0.00;;;0.00;;
19223;SDS011;9746;47.180;9.776;2023-04-23T14:13:30;0.00;;;0.00;;
19223;SDS011;9746;47.180;9.776;2023-04-23T14:15:59;0.00;;;0.00;;
19223;SDS011;9746;47.180;9.776;2023-04-23T14:18:27;0.00;;;0.00;;
19223;SDS011;9746;47.180;9.776;2023-04-23T14:24:21;0.00;;;0.00;;
19223;SDS011;9746;47.180;9.776;2023-04-23T14:26:50;0.00;;;0.00;;
19223;SDS011;9746;47.180;9.776;2023-04-23T14:29:39;0.00;;;0.00;;
19223;SDS011;9746;47.180;9.776;2023-04-23T14:32:10;0.00;;;0.00;;
19223;SDS011;9746;47.180;9.776;2023-04-23T14:34:53;0.00;;;0.00;;
19223;SDS011;9746;47.180;9.776;2023-04-23T14:37:23;0.00;;;0.00;;
19223;SDS011;9746;47.180;9.776;2023-04-23T14:39:52;0.00;;;0.00;;
19223;SDS011;9746;47.180;9.776;2023-04-23T14:42:21;0.00;;;0.00;;
19223;SDS011;9746;47.180;9.776;2023-04-23T14:47:46;0.00;;;0.00;;
19223;SDS011;9746;47.180;9.776;2023-04-23T14:53:00;0.00;;;0.00;;
19223;SDS011;9746;47.180;9.776;2023-04-23T14:58:54;0.03;;;0.03;;
19223;SDS011;9746;47.180;9.776;2023-04-23T15:01:22;0.10;;;0.10;;
19223;SDS011;9746;47.180;9.776;2023-04-23T15:03:51;0.10;;;0.10;;
19223;SDS011;9746;47.180;9.776;2023-04-23T15:08:56;0.00;;;0.00;;
19223;SDS011;9746;47.180;9.776;2023-04-23T15:11:33;0.10;;;0.10;;
19223;SDS011;9746;47.180;9.776;2023-04-23T15:14:07;0.10;;;0.10;;
19223;SDS011;9746;47.180;9.776;2023-04-23T15:16:43;0.10;;;0.10;;
19223;SDS011;9746;47.180;9.776;2023-04-23T15:19:22;0.10;;;0.10;;
19223;SDS011;9746;47.180;9.776;2023-04-23T15:21:49;0.10;;;0.10;;
19223;SDS011;9746;47.180;9.776;2023-04-23T15:24:17;0.10;;;0.10;;
19223;SDS011;9746;47.180;9.776;2023-04-23T15:26:44;0.10;;;0.10;;
19223;SDS011;9746;47.180;9.776;2023-04-23T15:29:14;0.10;;;0.10;;
19223;SDS011;9746;47.180;9.776;2023-04-23T15:31:43;0.10;;;0.10;;
19223;SDS011;9746;47.180;9.776;2023-04-23T15:34:11;0.08;;;0.08;;
19223;SDS011;9746;47.180;9.776;2023-04-23T15:36:38;0.10;;;0.10;;
19223;SDS011;9746;47.180;9.776;2023-04-23T15:39:06;0.10;;;0.10;;
19223;SDS011;9746;47.180;9.776;2023-04-23T15:41:37;0.10;;;0.10;;
19223;SDS011;9746;47.180;9.776;2023-04-23T15:44:04;0.10;;;0.10;;
19223;SDS011;9746;47.180;9.776;2023-04-23T15:52:49;0.10;;;0.10;;
19223;SDS011;9746;47.180;9.776;2023-04-23T15:58:37;0.10;;;0.10;;
19223;SDS011;9746;47.180;9.776;2023-04-23T16:04:28;0.10;;;0.10;;
19223;SDS011;9746;47.180;9.776;2023-04-23T16:06:56;0.10;;;0.10;;
19223;SDS011;9746;47.180;9.776;2023-04-23T16:09:23;0.10;;;0.10;;
19223;SDS011;9746;47.180;9.776;2023-04-23T16:11:51;0.10;;;0.10;;
19223;SDS011;9746;47.180;9.776;2023-04-23T16:14:19;0.15;;;0.15;;
19223;SDS011;9746;47.180;9.776;2023-04-23T16:19:55;0.10;;;0.10;;
19223;SDS011;9746;47.180;9.776;2023-04-23T16:22:23;0.10;;;0.10;;
19223;SDS011;9746;47.180;9.776;2023-04-23T16:24:56;0.10;;;0.10;;
19223;SDS011;9746;47.180;9.776;2023-04-23T16:27:25;0.10;;;0.10;;
19223;SDS011;9746;47.180;9.776;2023-04-23T16:32:38;0.10;;;0.10;;
19223;SDS011;9746;47.180;9.776;2023-04-23T16:38:09;0.10;;;0.10;;
19223;SDS011;9746;47.180;9.776;2023-04-23T16:40:38;0.10;;;0.10;;
19223;SDS011;9746;47.180;9.776;2023-04-23T16:43:05;0.20;;;0.20;;
19223;SDS011;9746;47.180;9.776;2023-04-23T16:48:27;0.10;;;0.10;;
19223;SDS011;9746;47.180;9.776;2023-04-23T16:53:33;0.10;;;0.10;;
19223;SDS011;9746;47.180;9.776;2023-04-23T16:58:50;0.13;;;0.13;;
19223;SDS011;9746;47.180;9.776;2023-04-23T17:04:06;0.10;;;0.10;;
19223;SDS011;9746;47.180;9.776;2023-04-23T17:06:53;0.20;;;0.20;;
19223;SDS011;9746;47.180;9.776;2023-04-23T17:09:21;0.10;;;0.10;;
19223;SDS011;9746;47.180;9.776;2023-04-23T17:11:56;0.17;;;0.17;;
19223;SDS011;9746;47.180;9.776;2023-04-23T17:14:24;0.20;;;0.20;;
19223;SDS011;9746;47.180;9.776;2023-04-23T17:20:13;0.20;;;0.20;;
19223;SDS011;9746;47.180;9.776;2023-04-23T17:22:42;0.20;;;0.20;;
19223;SDS011;9746;47.180;9.776;2023-04-23T17:28:16;0.10;;;0.10;;
19223;SDS011;9746;47.180;9.776;2023-04-23T17:31:00;0.10;;;0.10;;
19223;SDS011;9746;47.180;9.776;2023-04-23T17:33:28;0.10;;;0.10;;
19223;SDS011;9746;47.180;9.776;2023-04-23T17:38:47;0.20;;;0.20;;
19223;SDS011;9746;47.180;9.776;2023-04-23T17:44:36;0.10;;;0.10;;
19223;SDS011;9746;47.180;9.776;2023-04-23T17:50:27;0.20;;;0.20;;
19223;SDS011;9746;47.180;9.776;2023-04-23T17:52:54;0.20;;;0.20;;
19223;SDS011;9746;47.180;9.776;2023-04-23T17:58:38;0.20;;;0.20;;
19223;SDS011;9746;47.180;9.776;2023-04-23T18:04:37;0.20;;;0.20;;
19223;SDS011;9746;47.180;9.776;2023-04-23T18:09:43;0.20;;;0.20;;
19223;SDS011;9746;47.180;9.776;2023-04-23T18:12:12;0.13;;;0.13;;
19223;SDS011;9746;47.180;9.776;2023-04-23T18:14:41;0.20;;;0.20;;
19223;SDS011;9746;47.180;9.776;2023-04-23T18:20:00;0.15;;;0.15;;
19223;SDS011;9746;47.180;9.776;2023-04-23T18:22:42;0.20;;;0.20;;
19223;SDS011;9746;47.180;9.776;2023-04-23T18:25:10;0.10;;;0.10;;
19223;SDS011;9746;47.180;9.776;2023-04-23T18:27:45;0.20;;;0.20;;
19223;SDS011;9746;47.180;9.776;2023-04-23T18:30:15;0.10;;;0.10;;
19223;SDS011;9746;47.180;9.776;2023-04-23T18:32:48;0.20;;;0.20;;
19223;SDS011;9746;47.180;9.776;2023-04-23T18:35:24;0.20;;;0.20;;
19223;SDS011;9746;47.180;9.776;2023-04-23T18:37:52;0.20;;;0.20;;
19223;SDS011;9746;47.180;9.776;2023-04-23T18:40:20;0.20;;;0.20;;
19223;SDS011;9746;47.180;9.776;2023-04-23T18:42:48;0.20;;;0.20;;
19223;SDS011;9746;47.180;9.776;2023-04-23T18:45:17;0.20;;;0.20;;
19223;SDS011;9746;47.180;9.776;2023-04-23T18:51:03;0.20;;;0.20;;
19223;SDS011;9746;47.180;9.776;2023-04-23T18:53:36;0.20;;;0.20;;
19223;SDS011;9746;47.180;9.776;2023-04-23T18:56:05;0.20;;;0.20;;
19223;SDS011;9746;47.180;9.776;2023-04-23T18:58:32;0.20;;;0.20;;
19223;SDS011;9746;47.180;9.776;2023-04-23T19:01:08;0.20;;;0.20;;
19223;SDS011;9746;47.180;9.776;2023-04-23T19:03:36;0.20;;;0.20;;
19223;SDS011;9746;47.180;9.776;2023-04-23T19:09:05;0.20;;;0.20;;
19223;SDS011;9746;47.180;9.776;2023-04-23T19:14:54;0.20;;;0.20;;
19223;SDS011;9746;47.180;9.776;2023-04-23T19:20:06;0.20;;;0.20;;
19223;SDS011;9746;47.180;9.776;2023-04-23T19:25:29;0.20;;;0.20;;
19223;SDS011;9746;47.180;9.776;2023-04-23T19:27:57;0.20;;;0.20;;
19223;SDS011;9746;47.180;9.776;2023-04-23T19:30:24;0.20;;;0.20;;
19223;SDS011;9746;47.180;9.776;2023-04-23T19:32:58;0.10;;;0.10;;
19223;SDS011;9746;47.180;9.776;2023-04-23T19:35:26;0.20;;;0.20;;
